sensor_id;sensor_type;location;lat;lon;timestamp;P1;durP1;ratioP1;P2;durP2;ratioP2
6537;SDS011;3302;52.508;13.454;2023-02-18T00:01:09;10.50;;;2.93;;
6537;SDS011;3302;52.508;13.454;2023-02-18T00:03:37;9.37;;;2.40;;
6537;SDS011;3302;52.508;13.454;2023-02-18T00:06:36;10.00;;;2.10;;
6537;SDS011;3302;52.508;13.454;2023-02-18T00:08:57;9.63;;;2.13;;
6537;SDS011;3302;52.508;13.454;2023-02-18T00:11:26;10.27;;;2.53;;
6537;SDS011;3302;52.508;13.454;2023-02-18T00:13:55;7.67;;;2.23;;
6537;SDS011;3302;52.508;13.454;2023-02-18T00:16:23;8.37;;;2.00;;
6537;SDS011;3302;52.508;13.454;2023-02-18T00:18:50;8.07;;;2.77;;
6537;SDS011;3302;52.508;13.454;2023-02-18T00:21:20;8.80;;;2.60;;
6537;SDS011;3302;52.508;13.454;2023-02-18T00:23:46;8.53;;;2.27;;
6537;SDS011;3302;52.508;13.454;2023-02-18T00:26:13;12.77;;;2.63;;
6537;SDS011;3302;52.508;13.454;2023-02-18T00:28:39;6.23;;;2.30;;
6537;SDS011;3302;52.508;13.454;2023-02-18T00:31:06;9.53;;;2.37;;
6537;SDS011;3302;52.508;13.454;2023-02-18T00:33:41;9.83;;;2.20;;
6537;SDS011;3302;52.508;13.454;2023-02-18T00:36:09;7.97;;;2.27;;
6537;SDS011;3302;52.508;13.454;2023-02-18T00:38:37;6.70;;;2.63;;
6537;SDS011;3302;52.508;13.454;2023-02-18T00:41:03;10.33;;;2.43;;
6537;SDS011;3302;52.508;13.454;2023-02-18T00:43:29;9.23;;;2.50;;
6537;SDS011;3302;52.508;13.454;2023-02-18T00:45:55;10.37;;;2.60;;
6537;SDS011;3302;52.508;13.454;2023-02-18T00:48:21;8.60;;;2.57;;
6537;SDS011;3302;52.508;13.454;2023-02-18T00:50:47;10.03;;;2.90;;
6537;SDS011;3302;52.508;13.454;2023-02-18T00:53:13;9.73;;;2.80;;
6537;SDS011;3302;52.508;13.454;2023-02-18T00:55:39;9.17;;;2.17;;
6537;SDS011;3302;52.508;13.454;2023-02-18T00:58:06;10.57;;;2.83;;
6537;SDS011;3302;52.508;13.454;2023-02-18T01:00:32;11.17;;;2.33;;
6537;SDS011;3302;52.508;13.454;2023-02-18T01:02:57;5.87;;;2.33;;
6537;SDS011;3302;52.508;13.454;2023-02-18T01:05:23;8.97;;;1.90;;
6537;SDS011;3302;52.508;13.454;2023-02-18T01:07:49;7.97;;;2.47;;
6537;SDS011;3302;52.508;13.454;2023-02-18T01:10:15;6.93;;;2.30;;
6537;SDS011;3302;52.508;13.454;2023-02-18T01:12:41;10.57;;;2.60;;
6537;SDS011;3302;52.508;13.454;2023-02-18T01:15:07;5.33;;;2.07;;
6537;SDS011;3302;52.508;13.454;2023-02-18T01:17:33;5.60;;;2.13;;
6537;SDS011;3302;52.508;13.454;2023-02-18T01:19:59;8.93;;;2.43;;
6537;SDS011;3302;52.508;13.454;2023-02-18T01:22:25;6.70;;;2.00;;
6537;SDS011;3302;52.508;13.454;2023-02-18T01:24:51;10.63;;;3.37;;
6537;SDS011;3302;52.508;13.454;2023-02-18T01:27:17;8.80;;;2.63;;
6537;SDS011;3302;52.508;13.454;2023-02-18T01:29:42;9.00;;;2.03;;
6537;SDS011;3302;52.508;13.454;2023-02-18T01:32:08;6.90;;;1.87;;
6537;SDS011;3302;52.508;13.454;2023-02-18T01:34:34;6.73;;;2.13;;
6537;SDS011;3302;52.508;13.454;2023-02-18T01:37:00;10.93;;;2.30;;
6537;SDS011;3302;52.508;13.454;2023-02-18T01:39:25;4.70;;;2.03;;
6537;SDS011;3302;52.508;13.454;2023-02-18T01:41:51;8.03;;;2.47;;
6537;SDS011;3302;52.508;13.454;2023-02-18T01:46:45;7.13;;;2.30;;
6537;SDS011;3302;52.508;13.454;2023-02-18T01:49:13;7.93;;;2.40;;
6537;SDS011;3302;52.508;13.454;2023-02-18T01:51:52;8.27;;;2.53;;
6537;SDS011;3302;52.508;13.454;2023-02-18T01:54:24;9.60;;;2.60;;
6537;SDS011;3302;52.508;13.454;2023-02-18T01:57:39;9.93;;;2.47;;
6537;SDS011;3302;52.508;13.454;2023-02-18T01:59:47;10.37;;;2.30;;
6537;SDS011;3302;52.508;13.454;2023-02-18T02:02:18;6.17;;;2.03;;
6537;SDS011;3302;52.508;13.454;2023-02-18T02:04:46;9.03;;;1.97;;
6537;SDS011;3302;52.508;13.454;2023-02-18T02:07:13;9.40;;;2.27;;
6537;SDS011;3302;52.508;13.454;2023-02-18T02:09:40;9.67;;;1.73;;
6537;SDS011;3302;52.508;13.454;2023-02-18T02:12:20;10.20;;;2.37;;
6537;SDS011;3302;52.508;13.454;2023-02-18T02:39:50;10.53;;;2.27;;
6537;SDS011;3302;52.508;13.454;2023-02-18T02:45:09;8.30;;;2.00;;
6537;SDS011;3302;52.508;13.454;2023-02-18T02:47:59;5.67;;;1.93;;
6537;SDS011;3302;52.508;13.454;2023-02-18T02:50:44;6.80;;;1.90;;
6537;SDS011;3302;52.508;13.454;2023-02-18T02:53:30;7.97;;;2.33;;
6537;SDS011;3302;52.508;13.454;2023-02-18T02:55:59;6.67;;;1.83;;
6537;SDS011;3302;52.508;13.454;2023-02-18T02:58:25;10.13;;;2.33;;
6537;SDS011;3302;52.508;13.454;2023-02-18T03:06:35;6.17;;;2.27;;
6537;SDS011;3302;52.508;13.454;2023-02-18T03:09:31;8.50;;;1.90;;
6537;SDS011;3302;52.508;13.454;2023-02-18T03:15:38;6.37;;;1.70;;
6537;SDS011;3302;52.508;13.454;2023-02-18T03:20:46;6.03;;;2.03;;
6537;SDS011;3302;52.508;13.454;2023-02-18T03:23:16;3.50;;;1.90;;
6537;SDS011;3302;52.508;13.454;2023-02-18T03:25:47;4.40;;;1.23;;
6537;SDS011;3302;52.508;13.454;2023-02-18T03:28:15;6.93;;;2.33;;
6537;SDS011;3302;52.508;13.454;2023-02-18T03:30:45;5.47;;;1.70;;
6537;SDS011;3302;52.508;13.454;2023-02-18T03:33:19;10.63;;;2.27;;
6537;SDS011;3302;52.508;13.454;2023-02-18T03:35:51;8.00;;;2.00;;
6537;SDS011;3302;52.508;13.454;2023-02-18T03:38:35;7.93;;;1.97;;
6537;SDS011;3302;52.508;13.454;2023-02-18T03:41:04;8.03;;;1.70;;
6537;SDS011;3302;52.508;13.454;2023-02-18T03:43:30;10.53;;;1.93;;
6537;SDS011;3302;52.508;13.454;2023-02-18T03:45:56;5.17;;;1.40;;
6537;SDS011;3302;52.508;13.454;2023-02-18T03:48:23;7.07;;;2.00;;
6537;SDS011;3302;52.508;13.454;2023-02-18T03:50:49;5.90;;;1.87;;
6537;SDS011;3302;52.508;13.454;2023-02-18T03:53:15;6.17;;;1.63;;
6537;SDS011;3302;52.508;13.454;2023-02-18T03:55:40;6.80;;;2.20;;
6537;SDS011;3302;52.508;13.454;2023-02-18T03:58:06;8.03;;;2.57;;
6537;SDS011;3302;52.508;13.454;2023-02-18T04:00:32;3.97;;;1.50;;
6537;SDS011;3302;52.508;13.454;2023-02-18T04:02:58;6.57;;;1.73;;
6537;SDS011;3302;52.508;13.454;2023-02-18T04:05:24;4.90;;;1.90;;
6537;SDS011;3302;52.508;13.454;2023-02-18T04:07:50;5.47;;;1.70;;
6537;SDS011;3302;52.508;13.454;2023-02-18T04:10:16;6.63;;;1.70;;
6537;SDS011;3302;52.508;13.454;2023-02-18T04:12:42;6.17;;;1.80;;
6537;SDS011;3302;52.508;13.454;2023-02-18T04:15:08;3.73;;;1.63;;
6537;SDS011;3302;52.508;13.454;2023-02-18T04:17:34;5.43;;;1.60;;
6537;SDS011;3302;52.508;13.454;2023-02-18T04:19:59;7.60;;;2.37;;
6537;SDS011;3302;52.508;13.454;2023-02-18T04:22:25;6.83;;;2.00;;
6537;SDS011;3302;52.508;13.454;2023-02-18T04:24:51;6.47;;;1.80;;
6537;SDS011;3302;52.508;13.454;2023-02-18T04:27:17;6.53;;;2.07;;
6537;SDS011;3302;52.508;13.454;2023-02-18T04:29:43;9.33;;;2.10;;
6537;SDS011;3302;52.508;13.454;2023-02-18T04:32:08;7.00;;;1.70;;
6537;SDS011;3302;52.508;13.454;2023-02-18T04:34:34;6.97;;;2.33;;
6537;SDS011;3302;52.508;13.454;2023-02-18T04:37:00;6.87;;;1.90;;
6537;SDS011;3302;52.508;13.454;2023-02-18T04:39:26;5.67;;;1.97;;
6537;SDS011;3302;52.508;13.454;2023-02-18T04:41:52;6.97;;;1.90;;
6537;SDS011;3302;52.508;13.454;2023-02-18T04:44:17;6.87;;;1.87;;
6537;SDS011;3302;52.508;13.454;2023-02-18T04:46:43;5.27;;;1.60;;
6537;SDS011;3302;52.508;13.454;2023-02-18T04:49:09;8.23;;;2.10;;
6537;SDS011;3302;52.508;13.454;2023-02-18T04:51:35;8.40;;;1.67;;
6537;SDS011;3302;52.508;13.454;2023-02-18T04:54:02;10.03;;;2.50;;
6537;SDS011;3302;52.508;13.454;2023-02-18T04:56:28;5.43;;;1.70;;
6537;SDS011;3302;52.508;13.454;2023-02-18T04:58:54;3.93;;;2.00;;
6537;SDS011;3302;52.508;13.454;2023-02-18T05:01:19;7.97;;;1.57;;
6537;SDS011;3302;52.508;13.454;2023-02-18T05:03:45;6.20;;;1.60;;
6537;SDS011;3302;52.508;13.454;2023-02-18T05:06:11;4.23;;;1.70;;
6537;SDS011;3302;52.508;13.454;2023-02-18T05:08:37;6.43;;;2.67;;
6537;SDS011;3302;52.508;13.454;2023-02-18T05:11:06;6.37;;;2.07;;
6537;SDS011;3302;52.508;13.454;2023-02-18T05:13:32;7.27;;;2.30;;
6537;SDS011;3302;52.508;13.454;2023-02-18T05:15:58;5.47;;;1.63;;
6537;SDS011;3302;52.508;13.454;2023-02-18T05:18:25;4.87;;;1.40;;
6537;SDS011;3302;52.508;13.454;2023-02-18T05:20:51;5.37;;;1.93;;
6537;SDS011;3302;52.508;13.454;2023-02-18T05:23:16;7.83;;;2.00;;
6537;SDS011;3302;52.508;13.454;2023-02-18T05:25:44;5.07;;;1.50;;
6537;SDS011;3302;52.508;13.454;2023-02-18T05:28:10;4.70;;;2.17;;
6537;SDS011;3302;52.508;13.454;2023-02-18T05:30:35;7.43;;;1.90;;
6537;SDS011;3302;52.508;13.454;2023-02-18T05:33:01;6.50;;;2.40;;
6537;SDS011;3302;52.508;13.454;2023-02-18T05:35:27;6.27;;;1.70;;
6537;SDS011;3302;52.508;13.454;2023-02-18T05:37:53;8.60;;;1.53;;
6537;SDS011;3302;52.508;13.454;2023-02-18T05:40:18;4.70;;;2.00;;
6537;SDS011;3302;52.508;13.454;2023-02-18T05:42:44;7.13;;;1.90;;
6537;SDS011;3302;52.508;13.454;2023-02-18T05:45:10;5.13;;;2.33;;
6537;SDS011;3302;52.508;13.454;2023-02-18T05:47:36;7.73;;;1.70;;
6537;SDS011;3302;52.508;13.454;2023-02-18T05:50:02;4.83;;;1.80;;
6537;SDS011;3302;52.508;13.454;2023-02-18T05:52:28;5.70;;;1.60;;
6537;SDS011;3302;52.508;13.454;2023-02-18T05:54:54;6.93;;;1.67;;
6537;SDS011;3302;52.508;13.454;2023-02-18T05:57:20;7.73;;;1.63;;
6537;SDS011;3302;52.508;13.454;2023-02-18T05:59:46;4.13;;;1.40;;
6537;SDS011;3302;52.508;13.454;2023-02-18T06:02:12;8.20;;;1.70;;
6537;SDS011;3302;52.508;13.454;2023-02-18T06:04:37;4.97;;;1.80;;
6537;SDS011;3302;52.508;13.454;2023-02-18T06:07:04;5.20;;;1.50;;
6537;SDS011;3302;52.508;13.454;2023-02-18T06:09:30;6.20;;;2.03;;
6537;SDS011;3302;52.508;13.454;2023-02-18T06:11:56;5.20;;;1.53;;
6537;SDS011;3302;52.508;13.454;2023-02-18T06:14:22;5.60;;;1.77;;
6537;SDS011;3302;52.508;13.454;2023-02-18T06:16:48;7.10;;;1.57;;
6537;SDS011;3302;52.508;13.454;2023-02-18T06:19:13;4.13;;;1.60;;
6537;SDS011;3302;52.508;13.454;2023-02-18T06:21:39;7.23;;;1.70;;
6537;SDS011;3302;52.508;13.454;2023-02-18T06:24:05;4.67;;;1.70;;
6537;SDS011;3302;52.508;13.454;2023-02-18T06:26:31;4.97;;;1.80;;
6537;SDS011;3302;52.508;13.454;2023-02-18T06:28:58;6.80;;;1.50;;
6537;SDS011;3302;52.508;13.454;2023-02-18T06:31:24;5.43;;;1.27;;
6537;SDS011;3302;52.508;13.454;2023-02-18T06:33:50;5.70;;;1.53;;
6537;SDS011;3302;52.508;13.454;2023-02-18T06:36:15;6.17;;;1.50;;
6537;SDS011;3302;52.508;13.454;2023-02-18T06:38:42;6.10;;;1.80;;
6537;SDS011;3302;52.508;13.454;2023-02-18T06:41:09;3.30;;;1.47;;
6537;SDS011;3302;52.508;13.454;2023-02-18T06:43:36;5.53;;;1.70;;
6537;SDS011;3302;52.508;13.454;2023-02-18T06:46:03;2.90;;;1.53;;
6537;SDS011;3302;52.508;13.454;2023-02-18T06:48:29;6.77;;;1.80;;
6537;SDS011;3302;52.508;13.454;2023-02-18T06:50:55;7.23;;;1.70;;
6537;SDS011;3302;52.508;13.454;2023-02-18T06:53:21;5.43;;;1.87;;
6537;SDS011;3302;52.508;13.454;2023-02-18T06:55:47;5.00;;;1.83;;
6537;SDS011;3302;52.508;13.454;2023-02-18T06:58:13;5.20;;;1.60;;
6537;SDS011;3302;52.508;13.454;2023-02-18T07:00:39;4.80;;;1.57;;
6537;SDS011;3302;52.508;13.454;2023-02-18T07:03:06;6.97;;;2.10;;
6537;SDS011;3302;52.508;13.454;2023-02-18T07:05:32;4.63;;;1.50;;
6537;SDS011;3302;52.508;13.454;2023-02-18T07:07:58;5.70;;;1.63;;
6537;SDS011;3302;52.508;13.454;2023-02-18T07:10:24;4.27;;;1.40;;
6537;SDS011;3302;52.508;13.454;2023-02-18T07:12:50;4.00;;;1.40;;
6537;SDS011;3302;52.508;13.454;2023-02-18T07:15:16;6.60;;;1.30;;
6537;SDS011;3302;52.508;13.454;2023-02-18T07:17:41;4.67;;;1.50;;
6537;SDS011;3302;52.508;13.454;2023-02-18T07:20:07;3.87;;;1.63;;
6537;SDS011;3302;52.508;13.454;2023-02-18T07:22:33;5.07;;;1.50;;
6537;SDS011;3302;52.508;13.454;2023-02-18T07:24:59;3.27;;;1.33;;
6537;SDS011;3302;52.508;13.454;2023-02-18T07:27:25;4.33;;;1.53;;
6537;SDS011;3302;52.508;13.454;2023-02-18T07:29:51;3.37;;;1.30;;
6537;SDS011;3302;52.508;13.454;2023-02-18T07:32:18;4.20;;;1.47;;
6537;SDS011;3302;52.508;13.454;2023-02-18T07:34:44;5.20;;;1.70;;
6537;SDS011;3302;52.508;13.454;2023-02-18T07:37:10;4.10;;;1.30;;
6537;SDS011;3302;52.508;13.454;2023-02-18T07:39:42;4.30;;;1.87;;
6537;SDS011;3302;52.508;13.454;2023-02-18T07:42:09;4.03;;;1.40;;
6537;SDS011;3302;52.508;13.454;2023-02-18T07:44:36;5.07;;;1.30;;
6537;SDS011;3302;52.508;13.454;2023-02-18T07:47:03;4.13;;;1.30;;
6537;SDS011;3302;52.508;13.454;2023-02-18T07:49:30;3.70;;;1.30;;
6537;SDS011;3302;52.508;13.454;2023-02-18T07:51:58;4.43;;;1.40;;
6537;SDS011;3302;52.508;13.454;2023-02-18T07:54:24;4.40;;;1.60;;
6537;SDS011;3302;52.508;13.454;2023-02-18T07:56:50;5.27;;;1.70;;
6537;SDS011;3302;52.508;13.454;2023-02-18T07:59:16;3.93;;;1.10;;
6537;SDS011;3302;52.508;13.454;2023-02-18T08:01:43;2.83;;;1.40;;
6537;SDS011;3302;52.508;13.454;2023-02-18T08:04:09;4.63;;;1.23;;
6537;SDS011;3302;52.508;13.454;2023-02-18T08:06:36;2.70;;;1.27;;
6537;SDS011;3302;52.508;13.454;2023-02-18T08:09:04;7.93;;;1.70;;
6537;SDS011;3302;52.508;13.454;2023-02-18T08:11:30;4.10;;;1.20;;
6537;SDS011;3302;52.508;13.454;2023-02-18T08:13:57;6.43;;;1.67;;
6537;SDS011;3302;52.508;13.454;2023-02-18T08:16:22;4.80;;;1.53;;
6537;SDS011;3302;52.508;13.454;2023-02-18T08:18:49;4.03;;;1.30;;
6537;SDS011;3302;52.508;13.454;2023-02-18T08:21:16;3.47;;;1.53;;
6537;SDS011;3302;52.508;13.454;2023-02-18T08:23:43;1.97;;;1.03;;
6537;SDS011;3302;52.508;13.454;2023-02-18T08:26:09;2.30;;;1.10;;
6537;SDS011;3302;52.508;13.454;2023-02-18T08:28:35;2.90;;;1.40;;
6537;SDS011;3302;52.508;13.454;2023-02-18T08:31:01;2.93;;;1.30;;
6537;SDS011;3302;52.508;13.454;2023-02-18T08:33:28;3.37;;;1.30;;
6537;SDS011;3302;52.508;13.454;2023-02-18T08:35:54;3.30;;;1.23;;
6537;SDS011;3302;52.508;13.454;2023-02-18T08:38:21;4.93;;;1.80;;
6537;SDS011;3302;52.508;13.454;2023-02-18T08:40:48;2.67;;;1.10;;
6537;SDS011;3302;52.508;13.454;2023-02-18T08:43:14;2.60;;;1.07;;
6537;SDS011;3302;52.508;13.454;2023-02-18T08:45:41;2.77;;;1.30;;
6537;SDS011;3302;52.508;13.454;2023-02-18T08:48:09;5.97;;;1.30;;
6537;SDS011;3302;52.508;13.454;2023-02-18T08:50:36;4.97;;;1.50;;
6537;SDS011;3302;52.508;13.454;2023-02-18T08:53:02;2.63;;;1.17;;
6537;SDS011;3302;52.508;13.454;2023-02-18T08:55:29;5.57;;;1.50;;
6537;SDS011;3302;52.508;13.454;2023-02-18T08:57:56;3.57;;;1.30;;
6537;SDS011;3302;52.508;13.454;2023-02-18T09:00:22;4.23;;;1.50;;
6537;SDS011;3302;52.508;13.454;2023-02-18T09:02:48;3.20;;;1.60;;
6537;SDS011;3302;52.508;13.454;2023-02-18T09:05:15;10.07;;;1.83;;
6537;SDS011;3302;52.508;13.454;2023-02-18T09:07:41;5.83;;;1.70;;
6537;SDS011;3302;52.508;13.454;2023-02-18T09:10:07;2.90;;;1.57;;
6537;SDS011;3302;52.508;13.454;2023-02-18T09:12:34;2.73;;;1.80;;
6537;SDS011;3302;52.508;13.454;2023-02-18T09:15:00;5.80;;;2.00;;
6537;SDS011;3302;52.508;13.454;2023-02-18T09:17:26;6.03;;;2.00;;
6537;SDS011;3302;52.508;13.454;2023-02-18T09:19:53;3.87;;;2.00;;
6537;SDS011;3302;52.508;13.454;2023-02-18T09:22:19;7.23;;;1.80;;
6537;SDS011;3302;52.508;13.454;2023-02-18T09:24:45;7.30;;;2.23;;
6537;SDS011;3302;52.508;13.454;2023-02-18T09:27:11;7.40;;;2.10;;
6537;SDS011;3302;52.508;13.454;2023-02-18T09:29:37;10.03;;;2.40;;
6537;SDS011;3302;52.508;13.454;2023-02-18T09:32:05;5.60;;;2.43;;
6537;SDS011;3302;52.508;13.454;2023-02-18T09:34:32;8.30;;;2.67;;
6537;SDS011;3302;52.508;13.454;2023-02-18T09:36:58;6.50;;;2.57;;
6537;SDS011;3302;52.508;13.454;2023-02-18T09:39:24;6.90;;;2.20;;
6537;SDS011;3302;52.508;13.454;2023-02-18T09:42:06;5.33;;;2.03;;
6537;SDS011;3302;52.508;13.454;2023-02-18T09:44:37;7.00;;;2.73;;
6537;SDS011;3302;52.508;13.454;2023-02-18T09:47:16;6.83;;;3.00;;
6537;SDS011;3302;52.508;13.454;2023-02-18T09:49:53;7.53;;;2.50;;
6537;SDS011;3302;52.508;13.454;2023-02-18T09:52:23;13.00;;;6.70;;
6537;SDS011;3302;52.508;13.454;2023-02-18T09:54:53;9.70;;;4.77;;
6537;SDS011;3302;52.508;13.454;2023-02-18T09:59:59;12.70;;;6.70;;
6537;SDS011;3302;52.508;13.454;2023-02-18T10:02:31;6.37;;;2.97;;
6537;SDS011;3302;52.508;13.454;2023-02-18T10:04:58;8.77;;;2.43;;
6537;SDS011;3302;52.508;13.454;2023-02-18T10:07:25;5.53;;;2.23;;
6537;SDS011;3302;52.508;13.454;2023-02-18T10:09:55;6.57;;;2.20;;
6537;SDS011;3302;52.508;13.454;2023-02-18T10:12:24;6.03;;;2.47;;
6537;SDS011;3302;52.508;13.454;2023-02-18T10:14:55;5.47;;;2.87;;
6537;SDS011;3302;52.508;13.454;2023-02-18T10:17:24;9.80;;;2.77;;
6537;SDS011;3302;52.508;13.454;2023-02-18T10:19:52;4.93;;;2.50;;
6537;SDS011;3302;52.508;13.454;2023-02-18T10:22:20;6.77;;;2.57;;
6537;SDS011;3302;52.508;13.454;2023-02-18T10:25:05;10.63;;;2.60;;
6537;SDS011;3302;52.508;13.454;2023-02-18T10:27:33;6.13;;;2.80;;
6537;SDS011;3302;52.508;13.454;2023-02-18T10:30:23;5.00;;;2.90;;
6537;SDS011;3302;52.508;13.454;2023-02-18T10:33:11;7.60;;;2.37;;
6537;SDS011;3302;52.508;13.454;2023-02-18T10:52:18;6.53;;;2.47;;
6537;SDS011;3302;52.508;13.454;2023-02-18T10:55:01;10.03;;;2.77;;
6537;SDS011;3302;52.508;13.454;2023-02-18T10:57:28;5.30;;;2.40;;
6537;SDS011;3302;52.508;13.454;2023-02-18T11:00:05;5.53;;;2.20;;
6537;SDS011;3302;52.508;13.454;2023-02-18T11:05:38;5.30;;;2.40;;
6537;SDS011;3302;52.508;13.454;2023-02-18T11:08:06;6.33;;;2.47;;
6537;SDS011;3302;52.508;13.454;2023-02-18T11:10:37;5.17;;;2.23;;
6537;SDS011;3302;52.508;13.454;2023-02-18T11:13:05;4.57;;;2.93;;
6537;SDS011;3302;52.508;13.454;2023-02-18T11:15:33;3.30;;;2.20;;
6537;SDS011;3302;52.508;13.454;2023-02-18T11:20:58;4.17;;;2.10;;
6537;SDS011;3302;52.508;13.454;2023-02-18T11:23:25;6.40;;;2.60;;
6537;SDS011;3302;52.508;13.454;2023-02-18T11:26:12;5.27;;;2.43;;
6537;SDS011;3302;52.508;13.454;2023-02-18T11:28:45;5.07;;;2.33;;
6537;SDS011;3302;52.508;13.454;2023-02-18T11:31:19;5.93;;;2.40;;
6537;SDS011;3302;52.508;13.454;2023-02-18T11:33:49;5.27;;;2.00;;
6537;SDS011;3302;52.508;13.454;2023-02-18T11:38:56;4.70;;;2.70;;
6537;SDS011;3302;52.508;13.454;2023-02-18T11:41:39;4.53;;;2.50;;
6537;SDS011;3302;52.508;13.454;2023-02-18T11:49:32;4.97;;;2.20;;
6537;SDS011;3302;52.508;13.454;2023-02-18T11:52:03;5.53;;;2.73;;
6537;SDS011;3302;52.508;13.454;2023-02-18T11:54:38;3.57;;;2.30;;
6537;SDS011;3302;52.508;13.454;2023-02-18T11:57:05;3.93;;;2.10;;
6537;SDS011;3302;52.508;13.454;2023-02-18T11:59:36;2.73;;;2.00;;
6537;SDS011;3302;52.508;13.454;2023-02-18T12:04:43;4.23;;;2.30;;
6537;SDS011;3302;52.508;13.454;2023-02-18T12:10:30;4.73;;;3.20;;
6537;SDS011;3302;52.508;13.454;2023-02-18T12:24:24;2.63;;;2.33;;
6537;SDS011;3302;52.508;13.454;2023-02-18T12:27:10;4.67;;;2.67;;
6537;SDS011;3302;52.508;13.454;2023-02-18T12:37:51;5.27;;;3.07;;
6537;SDS011;3302;52.508;13.454;2023-02-18T12:43:35;5.80;;;3.10;;
6537;SDS011;3302;52.508;13.454;2023-02-18T12:54:21;7.80;;;3.27;;
6537;SDS011;3302;52.508;13.454;2023-02-18T13:07:45;3.70;;;2.77;;
6537;SDS011;3302;52.508;13.454;2023-02-18T13:15:38;3.07;;;2.50;;
6537;SDS011;3302;52.508;13.454;2023-02-18T13:18:11;3.13;;;2.70;;
6537;SDS011;3302;52.508;13.454;2023-02-18T13:21:19;3.00;;;2.47;;
6537;SDS011;3302;52.508;13.454;2023-02-18T13:23:50;2.93;;;2.50;;
6537;SDS011;3302;52.508;13.454;2023-02-18T13:26:25;3.40;;;2.40;;
6537;SDS011;3302;52.508;13.454;2023-02-18T13:34:22;2.70;;;2.20;;
6537;SDS011;3302;52.508;13.454;2023-02-18T13:37:14;3.00;;;2.07;;
6537;SDS011;3302;52.508;13.454;2023-02-18T13:39:47;2.03;;;1.83;;
6537;SDS011;3302;52.508;13.454;2023-02-18T13:47:42;2.80;;;2.07;;
6537;SDS011;3302;52.508;13.454;2023-02-18T13:55:38;2.93;;;1.80;;
6537;SDS011;3302;52.508;13.454;2023-02-18T13:58:13;2.90;;;2.00;;
6537;SDS011;3302;52.508;13.454;2023-02-18T14:00:52;2.10;;;1.70;;
6537;SDS011;3302;52.508;13.454;2023-02-18T14:06:20;1.80;;;1.70;;
6537;SDS011;3302;52.508;13.454;2023-02-18T14:08:46;2.30;;;1.80;;
6537;SDS011;3302;52.508;13.454;2023-02-18T14:16:07;2.13;;;1.93;;
6537;SDS011;3302;52.508;13.454;2023-02-18T14:21:49;2.90;;;1.90;;
6537;SDS011;3302;52.508;13.454;2023-02-18T14:24:06;5.27;;;2.70;;
6537;SDS011;3302;52.508;13.454;2023-02-18T14:26:36;1.93;;;1.70;;
6537;SDS011;3302;52.508;13.454;2023-02-18T14:29:07;3.07;;;2.37;;
6537;SDS011;3302;52.508;13.454;2023-02-18T14:31:44;1.87;;;1.43;;
6537;SDS011;3302;52.508;13.454;2023-02-18T14:40:01;1.80;;;1.40;;
6537;SDS011;3302;52.508;13.454;2023-02-18T14:48:29;1.37;;;1.20;;
6537;SDS011;3302;52.508;13.454;2023-02-18T14:51:13;1.90;;;1.40;;
6537;SDS011;3302;52.508;13.454;2023-02-18T14:53:42;2.37;;;1.20;;
6537;SDS011;3302;52.508;13.454;2023-02-18T14:56:09;1.50;;;1.30;;
6537;SDS011;3302;52.508;13.454;2023-02-18T14:58:45;1.87;;;1.40;;
6537;SDS011;3302;52.508;13.454;2023-02-18T15:03:54;1.43;;;1.33;;
6537;SDS011;3302;52.508;13.454;2023-02-18T15:08:52;2.23;;;1.40;;
6537;SDS011;3302;52.508;13.454;2023-02-18T15:11:19;1.47;;;1.10;;
6537;SDS011;3302;52.508;13.454;2023-02-18T15:13:48;1.80;;;1.50;;
6537;SDS011;3302;52.508;13.454;2023-02-18T15:16:25;1.83;;;1.40;;
6537;SDS011;3302;52.508;13.454;2023-02-18T15:18:58;2.23;;;1.97;;
6537;SDS011;3302;52.508;13.454;2023-02-18T15:21:28;4.33;;;2.67;;
6537;SDS011;3302;52.508;13.454;2023-02-18T15:26:42;1.50;;;1.40;;
6537;SDS011;3302;52.508;13.454;2023-02-18T15:29:14;2.07;;;1.10;;
6537;SDS011;3302;52.508;13.454;2023-02-18T15:31:45;2.03;;;1.23;;
6537;SDS011;3302;52.508;13.454;2023-02-18T15:36:59;1.30;;;1.20;;
6537;SDS011;3302;52.508;13.454;2023-02-18T15:39:26;1.53;;;1.17;;
6537;SDS011;3302;52.508;13.454;2023-02-18T15:41:56;1.63;;;1.30;;
6537;SDS011;3302;52.508;13.454;2023-02-18T15:44:28;1.77;;;1.63;;
6537;SDS011;3302;52.508;13.454;2023-02-18T15:46:58;2.77;;;1.90;;
6537;SDS011;3302;52.508;13.454;2023-02-18T15:49:25;1.17;;;1.00;;
6537;SDS011;3302;52.508;13.454;2023-02-18T15:51:53;1.03;;;0.93;;
6537;SDS011;3302;52.508;13.454;2023-02-18T15:54:22;1.00;;;0.90;;
6537;SDS011;3302;52.508;13.454;2023-02-18T15:56:49;2.10;;;1.70;;
6537;SDS011;3302;52.508;13.454;2023-02-18T15:59:24;1.70;;;1.30;;
6537;SDS011;3302;52.508;13.454;2023-02-18T16:01:51;1.40;;;1.30;;
6537;SDS011;3302;52.508;13.454;2023-02-18T16:04:21;2.30;;;1.80;;
6537;SDS011;3302;52.508;13.454;2023-02-18T16:06:49;1.20;;;1.10;;
6537;SDS011;3302;52.508;13.454;2023-02-18T16:09:32;1.40;;;1.30;;
6537;SDS011;3302;52.508;13.454;2023-02-18T16:12:00;1.90;;;1.30;;
6537;SDS011;3302;52.508;13.454;2023-02-18T16:14:32;1.43;;;1.10;;
6537;SDS011;3302;52.508;13.454;2023-02-18T16:17:08;1.40;;;1.13;;
6537;SDS011;3302;52.508;13.454;2023-02-18T16:19:42;2.40;;;1.17;;
6537;SDS011;3302;52.508;13.454;2023-02-18T16:24:53;1.20;;;0.90;;
6537;SDS011;3302;52.508;13.454;2023-02-18T16:27:51;1.30;;;1.00;;
6537;SDS011;3302;52.508;13.454;2023-02-18T16:30:37;1.07;;;0.97;;
6537;SDS011;3302;52.508;13.454;2023-02-18T16:33:05;4.50;;;1.23;;
6537;SDS011;3302;52.508;13.454;2023-02-18T16:35:32;1.37;;;1.10;;
6537;SDS011;3302;52.508;13.454;2023-02-18T16:37:59;1.67;;;0.80;;
6537;SDS011;3302;52.508;13.454;2023-02-18T16:40:29;1.30;;;1.00;;
6537;SDS011;3302;52.508;13.454;2023-02-18T16:43:00;1.60;;;1.30;;
6537;SDS011;3302;52.508;13.454;2023-02-18T16:45:35;3.00;;;1.70;;
6537;SDS011;3302;52.508;13.454;2023-02-18T16:48:04;2.27;;;1.43;;
6537;SDS011;3302;52.508;13.454;2023-02-18T16:50:31;1.67;;;1.40;;
6537;SDS011;3302;52.508;13.454;2023-02-18T16:52:58;1.60;;;1.50;;
6537;SDS011;3302;52.508;13.454;2023-02-18T16:55:26;2.03;;;1.50;;
6537;SDS011;3302;52.508;13.454;2023-02-18T16:57:53;1.60;;;1.40;;
6537;SDS011;3302;52.508;13.454;2023-02-18T17:00:19;1.80;;;1.50;;
6537;SDS011;3302;52.508;13.454;2023-02-18T17:02:48;1.53;;;1.43;;
6537;SDS011;3302;52.508;13.454;2023-02-18T17:05:17;1.70;;;1.50;;
6537;SDS011;3302;52.508;13.454;2023-02-18T17:07:44;1.50;;;1.40;;
6537;SDS011;3302;52.508;13.454;2023-02-18T17:10:10;2.00;;;1.70;;
6537;SDS011;3302;52.508;13.454;2023-02-18T17:12:36;2.40;;;1.63;;
6537;SDS011;3302;52.508;13.454;2023-02-18T17:15:14;1.40;;;1.30;;
6537;SDS011;3302;52.508;13.454;2023-02-18T17:17:47;2.10;;;1.57;;
6537;SDS011;3302;52.508;13.454;2023-02-18T17:20:13;2.17;;;1.50;;
6537;SDS011;3302;52.508;13.454;2023-02-18T17:22:40;1.97;;;1.67;;
6537;SDS011;3302;52.508;13.454;2023-02-18T17:25:11;1.93;;;1.60;;
6537;SDS011;3302;52.508;13.454;2023-02-18T17:27:45;2.37;;;1.47;;
6537;SDS011;3302;52.508;13.454;2023-02-18T17:30:11;1.90;;;1.63;;
6537;SDS011;3302;52.508;13.454;2023-02-18T17:32:37;1.60;;;1.37;;
6537;SDS011;3302;52.508;13.454;2023-02-18T17:35:03;2.40;;;1.67;;
6537;SDS011;3302;52.508;13.454;2023-02-18T17:37:29;2.40;;;1.67;;
6537;SDS011;3302;52.508;13.454;2023-02-18T17:39:54;2.43;;;1.80;;
6537;SDS011;3302;52.508;13.454;2023-02-18T17:42:20;1.73;;;1.40;;
6537;SDS011;3302;52.508;13.454;2023-02-18T17:44:46;1.97;;;1.67;;
6537;SDS011;3302;52.508;13.454;2023-02-18T17:47:12;2.50;;;1.93;;
6537;SDS011;3302;52.508;13.454;2023-02-18T17:49:38;2.27;;;1.30;;
6537;SDS011;3302;52.508;13.454;2023-02-18T17:52:03;2.73;;;2.00;;
6537;SDS011;3302;52.508;13.454;2023-02-18T17:54:29;2.93;;;1.70;;
6537;SDS011;3302;52.508;13.454;2023-02-18T17:56:55;2.33;;;1.70;;
6537;SDS011;3302;52.508;13.454;2023-02-18T17:59:21;1.80;;;1.60;;
6537;SDS011;3302;52.508;13.454;2023-02-18T18:01:47;4.90;;;2.27;;
6537;SDS011;3302;52.508;13.454;2023-02-18T18:04:13;2.50;;;1.60;;
6537;SDS011;3302;52.508;13.454;2023-02-18T18:06:43;2.43;;;1.60;;
6537;SDS011;3302;52.508;13.454;2023-02-18T18:09:10;2.50;;;1.90;;
6537;SDS011;3302;52.508;13.454;2023-02-18T18:11:36;2.30;;;1.77;;